Time;durP1;ratioP1;P1;durP2;ratioP2;P2;SDS_P1;SDS_P2;PMS_P1;PMS_P2;Temp;Humidity;BMP_temperature;BMP_pressure;BME280_temperature;BME280_humidity;BME280_pressure;Samples;Min_cycle;Max_cycle;Signal;HPM_P1;HPM_P2
2023/06/04 00:01:53;;;;;;;0.88;0.88;;;17.50;91.60;;;;;;5049895;28;20206;-79
2023/06/04 00:04:19;;;;;;;0.95;0.95;;;17.50;91.50;;;;;;5055475;28;20199;-79
2023/06/04 00:06:45;;;;;;;1.45;1.20;;;17.50;91.50;;;;;;5049519;28;20180;-78
2023/06/04 00:09:10;;;;;;;2.15;1.10;;;17.60;91.60;;;;;;5052786;28;20282;-79
2023/06/04 00:11:36;;;;;;;1.85;1.17;;;17.60;91.50;;;;;;5048590;28;20203;-79
2023/06/04 00:14:02;;;;;;;0.98;0.98;;;17.60;91.50;;;;;;5050028;28;20188;-79
2023/06/04 00:16:28;;;;;;;0.98;0.98;;;17.60;91.50;;;;;;5055692;28;20194;-79
2023/06/04 00:18:54;;;;;;;0.98;0.98;;;17.60;91.40;;;;;;5057487;28;20171;-78
2023/06/04 00:21:20;;;;;;;2.25;0.90;;;17.60;91.50;;;;;;5050705;28;20294;-80
2023/06/04 00:23:46;;;;;;;0.98;0.90;;;17.60;91.40;;;;;;5047668;28;20640;-79
2023/06/04 00:26:11;;;;;;;0.75;0.75;;;17.60;91.40;;;;;;5048467;28;20233;-80
2023/06/04 00:28:37;;;;;;;0.73;0.73;;;17.60;91.40;;;;;;5039643;28;20180;-78
2023/06/04 00:31:05;;;;;;;0.77;0.77;;;17.60;91.30;;;;;;5047707;28;20233;-79
2023/06/04 00:33:31;;;;;;;0.77;0.77;;;17.60;91.10;;;;;;5049382;28;20587;-79
2023/06/04 00:35:57;;;;;;;0.80;0.80;;;17.60;91.00;;;;;;5055103;28;20180;-79
2023/06/04 00:38:23;;;;;;;0.80;0.80;;;17.60;90.80;;;;;;5048785;28;20274;-79
2023/06/04 00:40:48;;;;;;;1.65;1.00;;;17.60;90.70;;;;;;5056236;28;20183;-79
2023/06/04 00:43:14;;;;;;;1.20;0.85;;;17.50;90.50;;;;;;5050099;28;20183;-78
2023/06/04 00:45:41;;;;;;;0.90;0.90;;;17.50;90.50;;;;;;5049252;28;20207;-78
2023/06/04 00:48:07;;;;;;;0.73;0.73;;;17.50;90.40;;;;;;5056798;28;20183;-78
2023/06/04 00:50:35;;;;;;;1.15;0.90;;;17.40;90.60;;;;;;5056244;28;20211;-79
2023/06/04 00:53:01;;;;;;;0.80;0.80;;;17.40;90.60;;;;;;5056726;28;20179;-79
2023/06/04 00:55:28;;;;;;;0.75;0.75;;;17.30;90.70;;;;;;5057227;28;20187;-78
2023/06/04 00:57:53;;;;;;;0.60;0.60;;;17.30;91.00;;;;;;5055806;28;20194;-79
2023/06/04 01:00:20;;;;;;;1.02;0.70;;;17.30;91.30;;;;;;5053438;28;20270;-79
2023/06/04 01:02:50;;;;;;;0.77;0.77;;;17.30;91.40;;;;;;5051381;28;20187;-79
2023/06/04 01:05:25;;;;;;;2.00;0.80;;;17.30;91.30;;;;;;5052278;28;20178;-79
2023/06/04 01:07:52;;;;;;;0.90;0.73;;;17.30;91.10;;;;;;5052831;28;20436;-79
2023/06/04 01:10:18;;;;;;;0.60;0.60;;;17.30;91.70;;;;;;5058157;28;20234;-79
2023/06/04 01:12:43;;;;;;;0.82;0.82;;;17.30;91.50;;;;;;5056282;28;20645;-79
2023/06/04 01:15:11;;;;;;;0.80;0.80;;;17.30;91.90;;;;;;5054623;28;20646;-79
2023/06/04 01:17:40;;;;;;;0.70;0.70;;;17.20;91.70;;;;;;5053493;28;20172;-79
2023/06/04 01:20:25;;;;;;;0.70;0.70;;;17.30;91.80;;;;;;5052052;28;20257;-80
2023/06/04 01:22:59;;;;;;;0.80;0.80;;;17.20;91.90;;;;;;5051936;28;20379;-78
2023/06/04 01:25:33;;;;;;;0.70;0.70;;;17.20;92.30;;;;;;5048403;28;20274;-80
2023/06/04 01:28:00;;;;;;;0.75;0.60;;;17.20;92.00;;;;;;5052307;28;20225;-79
2023/06/04 01:30:36;;;;;;;0.70;0.70;;;17.10;92.20;;;;;;5064950;28;20681;-79
2023/06/04 01:33:03;;;;;;;0.75;0.75;;;17.10;92.20;;;;;;5056144;28;20210;-79
2023/06/04 01:35:31;;;;;;;0.55;0.55;;;17.10;92.20;;;;;;5058373;28;20245;-80
2023/06/04 01:37:57;;;;;;;0.80;0.80;;;17.10;92.50;;;;;;5052114;28;20198;-79
2023/06/04 01:40:24;;;;;;;0.82;0.82;;;17.10;92.60;;;;;;5058660;28;20720;-79
2023/06/04 01:42:50;;;;;;;0.70;0.70;;;17.10;92.70;;;;;;5049032;28;20187;-79
2023/06/04 01:45:16;;;;;;;0.55;0.55;;;17.10;92.50;;;;;;5059517;28;20605;-79
2023/06/04 01:47:41;;;;;;;0.73;0.73;;;17.10;92.50;;;;;;5052627;28;20222;-79
2023/06/04 01:50:09;;;;;;;0.70;0.70;;;17.10;92.60;;;;;;5054099;28;20211;-79
2023/06/04 01:52:36;;;;;;;0.70;0.70;;;17.10;92.60;;;;;;5056740;28;20183;-79
2023/06/04 01:55:04;;;;;;;0.80;0.80;;;17.10;92.50;;;;;;5043562;28;20199;-80
2023/06/04 01:57:30;;;;;;;0.60;0.60;;;17.00;93.10;;;;;;5055692;28;20779;-80
2023/06/04 01:59:56;;;;;;;0.52;0.52;;;17.00;93.10;;;;;;5057006;28;20266;-79
2023/06/04 02:02:21;;;;;;;0.77;0.50;;;17.00;93.30;;;;;;5058870;28;20186;-79
2023/06/04 02:04:47;;;;;;;0.60;0.60;;;16.90;93.40;;;;;;5051566;28;20202;-79
2023/06/04 02:07:20;;;;;;;0.70;0.70;;;16.90;93.30;;;;;;5052005;28;20180;-78
2023/06/04 02:09:46;;;;;;;0.70;0.70;;;16.90;93.20;;;;;;5045653;28;20290;-79
2023/06/04 02:12:12;;;;;;;0.52;0.52;;;16.90;93.30;;;;;;5052362;28;20194;-78
2023/06/04 02:14:38;;;;;;;0.40;0.40;;;16.90;93.20;;;;;;5055933;28;20817;-78
2023/06/04 02:17:04;;;;;;;0.55;0.45;;;16.90;93.10;;;;;;5052539;28;20210;-79
2023/06/04 02:19:33;;;;;;;2.05;0.50;;;16.90;93.20;;;;;;5055365;28;20180;-79
2023/06/04 02:21:59;;;;;;;0.52;0.52;;;16.90;93.10;;;;;;5048841;28;20183;-77
2023/06/04 02:24:24;;;;;;;0.75;0.75;;;16.90;93.00;;;;;;5054740;28;20550;-79
2023/06/04 02:26:50;;;;;;;0.55;0.55;;;16.90;93.20;;;;;;5057000;28;20180;-79
2023/06/04 02:29:15;;;;;;;0.60;0.60;;;16.90;93.00;;;;;;5055245;28;20190;-79
2023/06/04 02:31:41;;;;;;;0.52;0.52;;;16.90;92.90;;;;;;5051180;28;20260;-78
2023/06/04 02:34:07;;;;;;;0.85;0.85;;;16.90;92.90;;;;;;5055694;28;20676;-80
2023/06/04 02:36:32;;;;;;;0.63;0.63;;;17.00;92.80;;;;;;5047162;28;20184;-80
2023/06/04 02:38:58;;;;;;;0.40;0.40;;;17.00;92.90;;;;;;5053394;28;20175;-80
2023/06/04 02:41:25;;;;;;;0.63;0.63;;;16.90;92.90;;;;;;5053623;28;20198;-79
2023/06/04 02:43:51;;;;;;;0.50;0.50;;;16.90;92.80;;;;;;5050962;28;20210;-80
2023/06/04 02:46:16;;;;;;;0.70;0.70;;;16.90;93.00;;;;;;5060572;28;20590;-80
2023/06/04 02:48:42;;;;;;;0.50;0.50;;;16.90;93.10;;;;;;5056751;28;20262;-80
2023/06/04 02:51:10;;;;;;;0.60;0.60;;;16.90;93.20;;;;;;5056279;28;20242;-79
2023/06/04 02:53:36;;;;;;;0.70;0.70;;;16.90;92.90;;;;;;5047088;28;20677;-80
2023/06/04 02:56:02;;;;;;;0.77;0.52;;;16.90;92.80;;;;;;5048604;28;20207;-80
2023/06/04 02:58:28;;;;;;;0.47;0.47;;;16.80;92.90;;;;;;5045954;28;20219;-79
2023/06/04 03:00:54;;;;;;;0.63;0.63;;;16.80;93.10;;;;;;5047286;28;20205;-79
2023/06/04 03:03:20;;;;;;;0.68;0.68;;;16.80;92.90;;;;;;5054307;28;20633;-80
2023/06/04 03:05:46;;;;;;;0.60;0.60;;;16.80;93.30;;;;;;5056524;28;20220;-80
2023/06/04 03:08:12;;;;;;;0.50;0.50;;;16.80;93.50;;;;;;5049113;28;20184;-80
2023/06/04 03:10:37;;;;;;;0.70;0.70;;;16.80;93.50;;;;;;5050078;28;20201;-79
2023/06/04 03:13:04;;;;;;;0.82;0.80;;;16.80;93.60;;;;;;5052549;28;20176;-78
2023/06/04 03:15:29;;;;;;;0.52;0.52;;;16.80;93.50;;;;;;5048916;28;20184;-79
2023/06/04 03:17:55;;;;;;;0.80;0.80;;;16.80;93.50;;;;;;5048410;28;20196;-79
2023/06/04 03:20:23;;;;;;;0.60;0.60;;;16.80;93.20;;;;;;5050112;28;20262;-79
2023/06/04 03:22:50;;;;;;;0.60;0.60;;;16.90;93.40;;;;;;5048752;28;20259;-79
2023/06/04 03:25:16;;;;;;;0.60;0.60;;;16.90;93.40;;;;;;5055489;28;20176;-79
2023/06/04 03:27:41;;;;;;;0.70;0.70;;;16.90;93.20;;;;;;5048506;28;20183;-79
2023/06/04 03:30:08;;;;;;;0.63;0.63;;;16.90;93.40;;;;;;5052176;28;20211;-79
2023/06/04 03:32:33;;;;;;;1.55;0.60;;;16.90;93.30;;;;;;5048287;28;20191;-79
2023/06/04 03:35:01;;;;;;;0.70;0.70;;;17.00;93.00;;;;;;5055692;28;20181;-79
2023/06/04 03:37:27;;;;;;;0.73;0.73;;;16.90;93.20;;;;;;5049523;28;20210;-79
2023/06/04 03:39:53;;;;;;;0.77;0.77;;;16.90;93.50;;;;;;5050442;28;20179;-80
2023/06/04 03:42:19;;;;;;;0.70;0.68;;;16.90;93.60;;;;;;5052235;28;20179;-80
2023/06/04 03:44:46;;;;;;;1.67;0.70;;;16.90;93.30;;;;;;5054094;28;20674;-80
2023/06/04 03:47:11;;;;;;;0.68;0.68;;;16.90;93.40;;;;;;5049460;28;20192;-79
2023/06/04 03:49:37;;;;;;;1.02;0.70;;;16.90;93.60;;;;;;5056771;28;20282;-80
2023/06/04 03:52:03;;;;;;;0.77;0.77;;;16.90;93.90;;;;;;5058767;28;20223;-80
2023/06/04 03:54:29;;;;;;;0.80;0.80;;;16.90;93.90;;;;;;5051144;28;20225;-80
2023/06/04 03:56:55;;;;;;;0.60;0.60;;;16.90;93.90;;;;;;5064335;28;20179;-80
2023/06/04 03:59:20;;;;;;;0.60;0.60;;;16.90;94.00;;;;;;5047215;28;20211;-80
2023/06/04 04:01:46;;;;;;;0.50;0.50;;;16.90;94.10;;;;;;5052959;28;20672;-79
2023/06/04 04:04:12;;;;;;;0.68;0.68;;;16.90;94.30;;;;;;5056875;28;20188;-79
2023/06/04 04:06:38;;;;;;;0.57;0.57;;;16.90;94.30;;;;;;5049772;28;20175;-79
2023/06/04 04:09:05;;;;;;;0.80;0.80;;;16.90;94.00;;;;;;5052131;28;20180;-79
2023/06/04 04:11:31;;;;;;;0.60;0.60;;;16.90;94.10;;;;;;5043716;28;20364;-80
2023/06/04 04:13:57;;;;;;;0.60;0.60;;;16.90;94.50;;;;;;5051836;28;21456;-78
2023/06/04 04:16:23;;;;;;;0.75;0.75;;;16.90;94.70;;;;;;5047867;28;20229;-80
2023/06/04 04:18:49;;;;;;;0.60;0.60;;;17.00;94.30;;;;;;5051863;28;20227;-79
2023/06/04 04:21:14;;;;;;;0.60;0.60;;;17.00;94.30;;;;;;5048243;28;20686;-79
2023/06/04 04:23:40;;;;;;;0.70;0.70;;;17.00;94.30;;;;;;5052720;28;20258;-79
2023/06/04 04:26:07;;;;;;;1.20;0.82;;;17.00;94.40;;;;;;5047490;28;20188;-79
2023/06/04 04:28:34;;;;;;;1.67;0.75;;;17.10;94.40;;;;;;5054174;28;20188;-80
2023/06/04 04:31:02;;;;;;;0.68;0.68;;;17.10;94.40;;;;;;5045220;28;20211;-80
2023/06/04 04:33:32;;;;;;;0.55;0.55;;;17.20;94.20;;;;;;5048039;28;20231;-80
2023/06/04 04:36:01;;;;;;;1.50;0.80;;;17.20;94.40;;;;;;5055420;28;20189;-80
2023/06/04 04:38:28;;;;;;;0.80;0.80;;;17.20;94.20;;;;;;5043925;28;20270;-81
2023/06/04 04:40:54;;;;;;;1.02;1.02;;;17.20;94.30;;;;;;5052936;28;20628;-81
2023/06/04 04:43:40;;;;;;;0.85;0.85;;;17.20;94.20;;;;;;5054344;28;20179;-79
2023/06/04 04:46:06;;;;;;;0.82;0.82;;;17.30;93.60;;;;;;5048957;28;20207;-79
2023/06/04 04:48:32;;;;;;;0.90;0.90;;;17.30;94.00;;;;;;5051660;28;20187;-79
2023/06/04 04:50:58;;;;;;;0.82;0.82;;;17.30;94.00;;;;;;5050009;28;20208;-79
2023/06/04 04:53:24;;;;;;;1.10;1.10;;;17.30;93.60;;;;;;5048738;28;20605;-80
2023/06/04 04:55:52;;;;;;;1.33;0.93;;;17.40;93.80;;;;;;5049444;28;20176;-81
2023/06/04 04:58:18;;;;;;;0.93;0.90;;;17.40;93.60;;;;;;5051824;28;20653;-79
2023/06/04 05:00:44;;;;;;;2.78;0.90;;;17.40;93.90;;;;;;5049707;28;20244;-79
2023/06/04 05:03:09;;;;;;;1.00;0.90;;;17.50;93.90;;;;;;5048333;28;20667;-80
2023/06/04 05:05:35;;;;;;;0.90;0.90;;;17.50;93.60;;;;;;5049191;28;20183;-80
2023/06/04 05:08:01;;;;;;;0.80;0.80;;;17.60;93.50;;;;;;5055629;28;20642;-79
2023/06/04 05:10:27;;;;;;;0.80;0.80;;;17.70;93.60;;;;;;5051629;28;20352;-79
2023/06/04 05:12:54;;;;;;;1.10;0.98;;;17.70;93.40;;;;;;5050606;28;20180;-79
2023/06/04 05:15:20;;;;;;;1.50;1.00;;;17.80;92.90;;;;;;5047966;28;20176;-80
2023/06/04 05:17:46;;;;;;;1.10;1.10;;;17.80;93.00;;;;;;5047486;28;20171;-80
2023/06/04 05:20:15;;;;;;;1.67;1.15;;;17.90;92.80;;;;;;5057917;28;20191;-80
2023/06/04 05:22:43;;;;;;;1.33;1.23;;;18.00;92.60;;;;;;5069536;28;20190;-79
2023/06/04 05:25:09;;;;;;;1.38;1.38;;;18.10;92.20;;;;;;5047937;28;20179;-80
2023/06/04 05:27:35;;;;;;;1.55;1.27;;;18.10;91.80;;;;;;5040006;28;20183;-79
2023/06/04 05:30:03;;;;;;;1.73;1.55;;;18.20;91.90;;;;;;5049343;28;20190;-80
2023/06/04 05:32:30;;;;;;;1.70;1.70;;;18.20;91.10;;;;;;5048028;28;20233;-80
2023/06/04 05:34:58;;;;;;;1.77;1.45;;;18.20;90.70;;;;;;5049271;28;20195;-80
2023/06/04 05:37:26;;;;;;;1.77;1.77;;;18.30;90.30;;;;;;5049885;28;20180;-79
2023/06/04 05:39:58;;;;;;;3.13;1.75;;;18.30;90.70;;;;;;5055398;28;20179;-80
2023/06/04 05:42:24;;;;;;;2.70;1.85;;;18.40;90.70;;;;;;5051523;28;20203;-80
2023/06/04 05:44:50;;;;;;;1.83;1.83;;;18.40;90.00;;;;;;5052666;28;20164;-80
2023/06/04 05:47:16;;;;;;;1.85;1.75;;;18.40;90.20;;;;;;5048946;28;20179;-79
2023/06/04 05:49:42;;;;;;;1.60;1.55;;;18.40;89.90;;;;;;5058080;28;20183;-80
2023/06/04 05:52:08;;;;;;;1.75;1.65;;;18.40;90.10;;;;;;5053062;28;20265;-80
2023/06/04 05:54:33;;;;;;;3.03;1.77;;;18.40;90.20;;;;;;5057941;28;20648;-80
2023/06/04 05:56:59;;;;;;;1.52;1.52;;;18.50;89.60;;;;;;5058718;28;20203;-80
2023/06/04 05:59:25;;;;;;;1.83;1.73;;;18.50;89.30;;;;;;5050706;28;20237;-80
2023/06/04 06:01:50;;;;;;;1.77;1.70;;;18.40;89.50;;;;;;5059495;28;20662;-79
2023/06/04 06:04:16;;;;;;;1.90;1.80;;;18.40;89.70;;;;;;5056689;28;20180;-80
2023/06/04 06:06:43;;;;;;;2.30;1.48;;;18.50;89.50;;;;;;5053949;28;20174;-79
2023/06/04 06:09:10;;;;;;;1.73;1.70;;;18.50;89.70;;;;;;5052982;28;20242;-80
2023/06/04 06:11:36;;;;;;;1.92;1.83;;;18.50;88.80;;;;;;5052654;28;20214;-80
2023/06/04 06:14:01;;;;;;;1.92;1.83;;;18.60;88.70;;;;;;5051986;28;20180;-79
2023/06/04 06:16:27;;;;;;;2.15;2.05;;;18.60;88.20;;;;;;5051828;28;20214;-79
2023/06/04 06:18:53;;;;;;;1.90;1.90;;;18.70;88.10;;;;;;5043642;28;20634;-78
2023/06/04 06:21:19;;;;;;;2.15;2.05;;;18.70;88.40;;;;;;5049528;28;20187;-79
2023/06/04 06:23:45;;;;;;;1.65;1.65;;;18.80;88.10;;;;;;5052237;28;20179;-80
2023/06/04 06:26:11;;;;;;;1.98;1.88;;;18.80;87.90;;;;;;5049469;28;20179;-79
2023/06/04 06:28:37;;;;;;;3.25;1.75;;;18.90;88.10;;;;;;5049278;28;20242;-79
2023/06/04 06:31:03;;;;;;;2.33;1.95;;;18.90;87.90;;;;;;5048576;28;20216;-79
2023/06/04 06:33:29;;;;;;;2.05;1.60;;;18.90;87.60;;;;;;5060127;28;20184;-80
2023/06/04 06:35:54;;;;;;;1.80;1.70;;;19.00;87.90;;;;;;5051565;28;20184;-80
2023/06/04 06:38:20;;;;;;;1.83;1.73;;;19.00;87.30;;;;;;5050619;28;20992;-80
2023/06/04 06:40:46;;;;;;;1.60;1.50;;;19.00;86.40;;;;;;5053526;28;20762;-80
2023/06/04 06:43:11;;;;;;;2.25;2.15;;;19.10;86.30;;;;;;5049239;28;20176;-78
2023/06/04 06:45:38;;;;;;;1.70;1.70;;;19.20;86.90;;;;;;5050795;28;20670;-79
2023/06/04 06:48:04;;;;;;;1.60;1.50;;;19.20;86.30;;;;;;5066319;28;20187;-80
2023/06/04 06:50:30;;;;;;;1.55;1.40;;;19.30;86.70;;;;;;5043862;28;20207;-78
2023/06/04 06:52:55;;;;;;;1.80;1.70;;;19.40;86.30;;;;;;5047841;28;20183;-79
2023/06/04 06:55:21;;;;;;;1.75;1.75;;;19.50;86.10;;;;;;5052610;28;20186;-85
2023/06/04 06:57:47;;;;;;;2.15;1.60;;;19.60;85.50;;;;;;5049354;28;20222;-89
2023/06/04 07:00:13;;;;;;;1.65;1.58;;;19.70;86.00;;;;;;5051771;28;20192;-83
2023/06/04 07:02:38;;;;;;;2.00;1.90;;;19.70;85.50;;;;;;5048478;28;20259;-85
2023/06/04 07:05:04;;;;;;;2.45;1.80;;;19.80;84.60;;;;;;5051264;28;20700;-82
2023/06/04 07:07:31;;;;;;;1.75;1.75;;;19.90;84.20;;;;;;5053459;28;20206;-80
2023/06/04 07:09:56;;;;;;;1.55;1.55;;;19.90;84.30;;;;;;5048774;28;20175;-80
2023/06/04 07:12:22;;;;;;;1.83;1.80;;;20.00;84.50;;;;;;5055294;28;20190;-79
2023/06/04 07:14:47;;;;;;;2.20;1.70;;;20.00;84.30;;;;;;5050715;28;20179;-79
2023/06/04 07:17:13;;;;;;;2.03;1.88;;;20.10;84.20;;;;;;5052643;28;20186;-81
2023/06/04 07:19:39;;;;;;;2.05;1.95;;;20.10;83.50;;;;;;5051558;28;20633;-81
2023/06/04 07:22:05;;;;;;;2.03;1.92;;;20.20;83.60;;;;;;5051481;28;20215;-79
2023/06/04 07:24:30;;;;;;;2.58;2.33;;;20.20;84.00;;;;;;5040107;28;20184;-79
2023/06/04 07:26:57;;;;;;;2.78;1.90;;;20.30;83.80;;;;;;5043251;28;20286;-78
2023/06/04 07:29:22;;;;;;;2.70;2.13;;;20.30;83.40;;;;;;5046627;28;20219;-78
2023/06/04 07:31:48;;;;;;;1.95;1.85;;;20.40;83.50;;;;;;5045059;28;20271;-79
2023/06/04 07:34:13;;;;;;;2.45;2.28;;;20.50;83.40;;;;;;5051395;28;20182;-79
2023/06/04 07:36:39;;;;;;;5.82;2.60;;;20.60;82.90;;;;;;5041964;28;20184;-78
2023/06/04 07:39:05;;;;;;;1.92;1.83;;;20.70;83.00;;;;;;5040600;28;20187;-79
2023/06/04 07:41:31;;;;;;;2.15;2.15;;;20.90;82.80;;;;;;5043042;28;20222;-79
2023/06/04 07:43:57;;;;;;;2.40;2.30;;;21.00;82.30;;;;;;5047809;28;21903;-78
2023/06/04 07:46:23;;;;;;;3.05;2.15;;;21.20;82.00;;;;;;5041749;28;20236;-79
2023/06/04 07:48:48;;;;;;;2.00;1.95;;;21.30;81.40;;;;;;5034907;28;20645;-79
2023/06/04 07:51:14;;;;;;;1.92;1.92;;;21.40;81.30;;;;;;5046199;28;20285;-79
2023/06/04 07:53:41;;;;;;;2.03;1.85;;;21.50;81.40;;;;;;5048445;28;20188;-79
2023/06/04 07:56:06;;;;;;;2.60;2.40;;;21.60;81.60;;;;;;5044318;28;20643;-78
2023/06/04 07:58:32;;;;;;;2.97;2.58;;;21.70;81.00;;;;;;5042903;28;20191;-79
2023/06/04 08:00:57;;;;;;;2.42;2.33;;;21.70;81.50;;;;;;5041493;28;20199;-78
2023/06/04 08:03:24;;;;;;;4.32;2.38;;;21.80;81.20;;;;;;5048598;28;20187;-78
2023/06/04 08:05:50;;;;;;;2.63;2.25;;;21.80;80.80;;;;;;5045418;28;20186;-78
2023/06/04 08:08:16;;;;;;;2.42;2.30;;;21.80;80.50;;;;;;5041111;28;20182;-77
2023/06/04 08:10:42;;;;;;;2.40;2.30;;;21.80;80.40;;;;;;5044351;28;20230;-77
2023/06/04 08:13:09;;;;;;;2.80;2.65;;;21.90;81.00;;;;;;5050420;28;20180;-77
2023/06/04 08:15:35;;;;;;;2.65;2.45;;;21.90;80.90;;;;;;5043227;28;20263;-78
2023/06/04 08:18:01;;;;;;;2.63;2.47;;;21.90;80.80;;;;;;5043201;28;20192;-78
2023/06/04 08:20:26;;;;;;;3.40;3.10;;;21.90;80.60;;;;;;5042886;28;20184;-78
2023/06/04 08:22:52;;;;;;;2.70;2.60;;;22.00;80.20;;;;;;5045203;28;20187;-78
2023/06/04 08:25:18;;;;;;;3.42;3.22;;;22.10;79.80;;;;;;5046289;28;20187;-78
2023/06/04 08:27:43;;;;;;;3.00;2.80;;;22.20;78.20;;;;;;5039251;28;20179;-77
2023/06/04 08:30:10;;;;;;;2.50;2.40;;;22.20;79.30;;;;;;5042911;28;20187;-77
2023/06/04 08:32:35;;;;;;;4.68;3.25;;;22.30;80.10;;;;;;5043615;28;20187;-77
2023/06/04 08:35:01;;;;;;;3.15;2.95;;;22.40;79.50;;;;;;5048336;28;20176;-78
2023/06/04 08:37:27;;;;;;;3.70;3.50;;;22.50;79.50;;;;;;5049285;28;20194;-77
2023/06/04 08:39:53;;;;;;;3.45;3.20;;;22.60;77.40;;;;;;5046107;28;20611;-77
2023/06/04 08:42:37;;;;;;;4.78;3.33;;;22.60;78.20;;;;;;5049757;28;20179;-78
2023/06/04 08:45:03;;;;;;;3.75;3.45;;;22.70;78.20;;;;;;5042682;28;20188;-79
2023/06/04 08:47:30;;;;;;;3.65;3.45;;;22.60;77.20;;;;;;5050321;28;20184;-77
2023/06/04 08:50:00;;;;;;;2.90;2.67;;;22.60;78.00;;;;;;5042714;28;20188;-78
2023/06/04 08:52:27;;;;;;;3.00;2.67;;;22.60;78.20;;;;;;5080177;28;20176;-78
2023/06/04 08:54:54;;;;;;;2.85;2.72;;;22.60;79.30;;;;;;5043161;28;20195;-78
2023/06/04 08:57:20;;;;;;;3.10;2.92;;;22.70;78.80;;;;;;5049148;28;20677;-78
2023/06/04 08:59:46;;;;;;;3.50;3.00;;;22.70;78.50;;;;;;5043665;28;20249;-79
2023/06/04 09:02:16;;;;;;;3.17;3.00;;;22.80;77.70;;;;;;5048962;28;20237;-78
2023/06/04 09:04:42;;;;;;;3.05;2.85;;;22.90;77.60;;;;;;5039052;28;20249;-77
2023/06/04 09:07:10;;;;;;;5.13;3.92;;;22.90;76.50;;;;;;5049407;28;20635;-78
2023/06/04 09:09:38;;;;;;;3.75;3.47;;;22.90;75.80;;;;;;5050191;28;20203;-78
2023/06/04 09:12:08;;;;;;;3.78;3.25;;;22.80;76.20;;;;;;5049294;28;20205;-77
2023/06/04 09:14:34;;;;;;;3.13;3.03;;;22.60;76.50;;;;;;5052053;28;20262;-78
2023/06/04 09:17:00;;;;;;;3.30;3.10;;;22.50;76.50;;;;;;5044822;28;20274;-78
2023/06/04 09:19:26;;;;;;;3.30;3.10;;;22.30;76.60;;;;;;5041628;28;20179;-78
2023/06/04 09:21:55;;;;;;;4.28;3.90;;;21.90;75.80;;;;;;5039439;28;20602;-78
2023/06/04 09:24:22;;;;;;;7.60;3.58;;;21.60;76.60;;;;;;5048936;28;20270;-78
2023/06/04 09:26:48;;;;;;;7.03;3.60;;;21.70;78.60;;;;;;5051014;28;20180;-78
2023/06/04 09:29:15;;;;;;;5.00;3.42;;;21.70;77.50;;;;;;5049314;28;20203;-81
2023/06/04 09:31:44;;;;;;;7.20;3.50;;;21.80;78.10;;;;;;5044579;28;20208;-82
2023/06/04 09:34:10;;;;;;;3.92;3.63;;;21.90;77.40;;;;;;5050293;28;20220;-81
2023/06/04 09:36:36;;;;;;;3.85;3.65;;;21.80;76.60;;;;;;5046103;28;20208;-82
2023/06/04 09:39:16;;;;;;;9.43;4.20;;;21.80;77.40;;;;;;5052983;28;20183;-82
2023/06/04 09:41:42;;;;;;;4.15;3.55;;;21.80;77.70;;;;;;5053056;28;20184;-81
2023/06/04 09:44:11;;;;;;;7.35;4.57;;;22.00;78.40;;;;;;5048739;28;20187;-80
2023/06/04 09:46:37;;;;;;;4.13;3.83;;;22.20;77.60;;;;;;5049288;28;20720;-81
2023/06/04 09:49:04;;;;;;;4.57;3.75;;;22.20;76.10;;;;;;5050231;28;20258;-81
2023/06/04 09:51:31;;;;;;;3.75;3.55;;;22.30;76.90;;;;;;5049904;28;20237;-80
2023/06/04 09:53:59;;;;;;;4.57;4.28;;;22.30;75.90;;;;;;5052174;28;20187;-81
2023/06/04 09:56:28;;;;;;;4.30;3.97;;;22.40;77.00;;;;;;5049208;28;20179;-77
2023/06/04 09:58:57;;;;;;;4.28;3.92;;;22.60;76.50;;;;;;5043515;28;20186;-81
2023/06/04 10:01:26;;;;;;;5.45;3.97;;;22.90;76.60;;;;;;5052258;28;20176;-81
2023/06/04 10:03:55;;;;;;;4.85;4.50;;;23.10;76.40;;;;;;5051756;28;20632;-80
2023/06/04 10:06:21;;;;;;;4.53;4.13;;;23.40;74.90;;;;;;5043771;28;20229;-81
2023/06/04 10:08:50;;;;;;;7.45;4.43;;;23.50;73.90;;;;;;5047059;28;20180;-80
2023/06/04 10:11:20;;;;;;;5.68;4.32;;;23.50;75.10;;;;;;5044158;28;20244;-80
2023/06/04 10:13:56;;;;;;;4.07;3.72;;;23.60;74.90;;;;;;5047339;28;20203;-79
2023/06/04 10:16:25;;;;;;;4.25;3.83;;;23.60;73.00;;;;;;5046851;28;20172;-79
2023/06/04 10:18:54;;;;;;;3.70;3.53;;;23.70;74.00;;;;;;5052163;28;20245;-80
2023/06/04 10:21:21;;;;;;;3.85;3.65;;;23.70;73.10;;;;;;5048313;28;20192;-80
2023/06/04 10:23:47;;;;;;;3.45;3.25;;;23.90;74.70;;;;;;5049044;28;20230;-80
2023/06/04 10:26:17;;;;;;;3.33;3.17;;;24.20;73.50;;;;;;5049569;28;20603;-81
2023/06/04 10:28:43;;;;;;;3.47;3.22;;;24.40;71.60;;;;;;5064910;28;20210;-81
2023/06/04 10:31:12;;;;;;;3.50;3.22;;;24.70;72.10;;;;;;5043469;28;20619;-81
2023/06/04 10:33:39;;;;;;;3.17;2.97;;;24.90;72.60;;;;;;5057435;28;20237;-80
2023/06/04 10:36:19;;;;;;;2.85;2.75;;;25.20;71.60;;;;;;5046358;28;20201;-80
2023/06/04 10:38:50;;;;;;;3.53;3.38;;;25.30;71.50;;;;;;5046683;28;20180;-79
2023/06/04 10:41:17;;;;;;;3.13;3.03;;;25.30;71.10;;;;;;5037952;28;20191;-81
2023/06/04 10:43:49;;;;;;;4.68;3.28;;;25.10;71.00;;;;;;5043561;28;20242;-80
2023/06/04 10:46:16;;;;;;;4.55;4.00;;;25.00;71.50;;;;;;5050400;28;20830;-80
2023/06/04 10:48:53;;;;;;;5.63;3.90;;;24.70;69.40;;;;;;5048560;28;20703;-81
2023/06/04 10:51:33;;;;;;;3.63;3.40;;;24.10;71.40;;;;;;5040220;28;20235;-84
2023/06/04 10:54:00;;;;;;;4.38;4.07;;;24.10;73.30;;;;;;5049568;28;20181;-84
2023/06/04 10:56:27;;;;;;;3.72;3.50;;;23.80;72.90;;;;;;5048405;28;20184;-83
2023/06/04 10:58:53;;;;;;;5.00;3.22;;;23.70;73.80;;;;;;5049663;28;20274;-83
2023/06/04 11:01:28;;;;;;;3.45;3.35;;;23.70;75.00;;;;;;5048615;28;20672;-83
2023/06/04 11:03:54;;;;;;;3.65;3.45;;;23.70;72.30;;;;;;5047994;28;20178;-82
2023/06/04 11:06:21;;;;;;;3.35;2.88;;;23.60;73.90;;;;;;5047722;28;20186;-82
2023/06/04 11:08:47;;;;;;;3.55;3.25;;;23.50;73.60;;;;;;5047717;28;20193;-83
2023/06/04 11:11:13;;;;;;;6.40;3.85;;;23.40;73.60;;;;;;5046175;28;20212;-79
2023/06/04 11:13:40;;;;;;;3.80;3.47;;;23.30;73.90;;;;;;5053110;28;20188;-79
2023/06/04 11:16:16;;;;;;;4.18;3.78;;;23.20;74.10;;;;;;5048602;28;20266;-82
2023/06/04 11:18:42;;;;;;;4.00;3.58;;;23.10;73.60;;;;;;5049710;28;20711;-82
2023/06/04 11:21:07;;;;;;;3.70;3.40;;;23.00;74.00;;;;;;5047803;28;20218;-81
2023/06/04 11:23:34;;;;;;;3.97;3.78;;;22.90;74.70;;;;;;5050684;28;20238;-83
2023/06/04 11:26:00;;;;;;;3.85;3.67;;;22.90;75.30;;;;;;5042936;28;20184;-81
2023/06/04 11:28:27;;;;;;;3.50;3.33;;;22.70;74.10;;;;;;5046521;28;20202;-81
2023/06/04 11:30:56;;;;;;;3.80;3.58;;;22.60;75.30;;;;;;5058470;28;20345;-78
2023/06/04 11:33:22;;;;;;;4.25;3.75;;;22.60;75.00;;;;;;5060347;28;20179;-78
2023/06/04 11:35:48;;;;;;;3.30;3.15;;;22.40;76.00;;;;;;5047146;28;20681;-78
2023/06/04 11:38:13;;;;;;;3.45;3.35;;;22.40;76.80;;;;;;5058746;28;20187;-78
2023/06/04 11:40:39;;;;;;;3.78;3.63;;;22.50;76.50;;;;;;5049500;28;20193;-77
2023/06/04 11:43:05;;;;;;;3.47;3.33;;;22.60;76.20;;;;;;5051640;28;20187;-78
2023/06/04 11:45:32;;;;;;;3.50;3.30;;;22.70;76.90;;;;;;5053851;28;20180;-78
2023/06/04 11:47:57;;;;;;;4.05;3.85;;;22.80;75.80;;;;;;5058173;28;20175;-78
2023/06/04 11:50:27;;;;;;;4.53;4.22;;;22.80;76.20;;;;;;5046287;28;20277;-77
2023/06/04 11:52:53;;;;;;;3.97;3.72;;;22.70;76.80;;;;;;5067911;28;20171;-78
2023/06/04 11:55:22;;;;;;;4.57;4.38;;;22.60;76.40;;;;;;5066316;28;20584;-77
2023/06/04 11:57:49;;;;;;;4.25;3.95;;;22.50;75.60;;;;;;5054255;28;20172;-77
2023/06/04 12:00:17;;;;;;;4.30;4.10;;;22.40;76.10;;;;;;5047045;28;20184;-76
2023/06/04 12:02:56;;;;;;;4.55;4.25;;;22.20;77.40;;;;;;5050766;28;20723;-78
2023/06/04 12:05:23;;;;;;;4.30;4.10;;;22.10;77.40;;;;;;5049872;28;20218;-77
2023/06/04 12:07:50;;;;;;;5.03;4.72;;;22.00;78.20;;;;;;5051729;28;20206;-77
2023/06/04 12:10:17;;;;;;;4.15;3.95;;;21.90;78.30;;;;;;5051713;28;20183;-78
2023/06/04 12:12:43;;;;;;;4.25;4.13;;;21.90;77.40;;;;;;5051480;28;20183;-77
2023/06/04 12:15:10;;;;;;;6.25;4.55;;;21.90;77.00;;;;;;5050239;28;20262;-77
2023/06/04 12:17:37;;;;;;;4.75;4.35;;;21.90;77.00;;;;;;5053428;28;20206;-78
2023/06/04 12:20:05;;;;;;;4.75;4.43;;;21.90;77.20;;;;;;5053879;28;20180;-78
2023/06/04 12:22:31;;;;;;;4.72;4.45;;;21.80;77.20;;;;;;5045946;28;20656;-80
2023/06/04 12:25:00;;;;;;;4.72;4.43;;;21.70;78.30;;;;;;5045840;28;20653;-76
2023/06/04 12:27:26;;;;;;;4.13;3.85;;;21.70;79.10;;;;;;5045920;28;20179;-77
2023/06/04 12:30:02;;;;;;;4.13;4.00;;;21.70;78.90;;;;;;5045839;28;20207;-77
2023/06/04 12:32:28;;;;;;;4.40;4.20;;;21.70;79.00;;;;;;5044731;28;20221;-78
2023/06/04 12:34:54;;;;;;;4.07;3.90;;;21.60;79.90;;;;;;5044962;28;20613;-77
2023/06/04 12:37:22;;;;;;;5.13;4.47;;;21.60;78.90;;;;;;5045244;28;20230;-77
2023/06/04 12:39:47;;;;;;;5.07;4.35;;;21.60;78.30;;;;;;5047809;28;20240;-74
2023/06/04 12:42:13;;;;;;;5.30;4.85;;;21.60;78.60;;;;;;5044916;28;20184;-77
2023/06/04 12:44:40;;;;;;;4.55;4.35;;;21.60;79.00;;;;;;5050522;28;20190;-75
2023/06/04 12:47:06;;;;;;;4.15;3.95;;;21.60;79.20;;;;;;5043669;28;20578;-77